• Join FlightAware (Why Join?)
  • Login
  • US Flag 
03:09AM EDT


 

Airport Tracker/Info


-or-


 

Live Flight TrackerFlight Track Log ✈ N510SR ✈ 01-Dec-2013 ✈ KPBI - KTEB

Flight Track Log - Related Links

Times and Time Zones

All times are in EST time to prevent confusion due to time zone crossing. See the N510SR flight status page for this flight to view local times or setup timezone preferences in your user account.

Time Position Orientation Groundspeed Altitude Reporting Facility
EST Latitude Longitude Course Direction KTS MPH feet Rate Location/Type
09:02AM 26.7283 -79.9572 North 235 270 6,800  Level Miami Center
09:03AM 26.7733 -79.9094 43° Northeast 270 311 9,000 2,580 Climbing Miami Center
09:04AM 26.8394 -79.8389 44° Northeast 285 328 12,000 1,620 Climbing Miami Center
09:05AM 26.8914 -79.7589 54° Northeast 301 346 12,300 420 Climbing Miami Center
09:06AM 27.3306 -79.8605 North  Level Estimated
09:06AM 26.9514 -79.6717 52° Northeast 337 388 12,900  Level Miami Center
09:07AM 27.0053 -79.5822 56° Northeast 369 425 13,900 1,740 Climbing Miami Center
09:09AM 27.1450 -79.3706 53° Northeast 395 455 18,200 1,980 Climbing Miami Center
09:10AM 27.2114 -79.2647 55° Northeast 408 470 20,000 1,680 Climbing Miami Center
09:11AM 27.2758 -79.1656 54° Northeast 427 491 21,600 1,560 Climbing Miami Center
09:12AM 27.3464 -79.0500 55° Northeast 438 504 23,200 1,620 Climbing Miami Center
09:13AM 27.4278 -78.9206 55° Northeast 458 527 24,900 1,620 Climbing Miami Center
09:14AM 27.5208 -78.8286 41° Northeast 434 499 26,500 1,560 Climbing Miami Center
09:15AM 27.6344 -78.7719 24° Northeast 440 506 28,100 1,800 Climbing Miami Center
09:16AM 27.7372 -78.7289 20° North 434 499 30,200 2,340 Climbing Miami Center
09:17AM 27.8547 -78.6908 16° North 434 499 32,800 3,000 Climbing Miami Center
09:18AM 27.9594 -78.6597 15° North 409 471 36,200 2,520 Climbing Miami Center
09:19AM 28.0558 -78.6425 North 376 433 37,900 1,140 Climbing Miami Center
09:20AM 28.1581 -78.6322 North 366 421 38,500 720 Climbing Miami Center
09:21AM 28.2647 -78.6175 North 374 430 39,400 900 Climbing Miami Center
09:22AM 28.3714 -78.6050 North 382 440 40,400 780 Climbing Miami Center
09:23AM 28.4822 -78.5925 North 387 445 41,000 300 Climbing Miami Center
09:24AM 28.5972 -78.5800 North 399 459 41,000  Level Miami Center
09:25AM 28.7142 -78.5675 North 414 476 41,000  Level Miami Center
09:26AM 28.8311 -78.5528 North 424 488 41,000  Level Miami Center
09:27AM 28.9522 -78.5406 North 424 488 41,100 900 Climbing Miami Center
09:28AM 29.0714 -78.5256 North 424 488 42,900 900 Climbing Miami Center
09:29AM 29.1781 -78.5131 North 409 471 43,000  Climbing Miami Center
09:30AM 29.2908 -78.5003 North 409 471 43,000  Level Miami Center
09:31AM 29.4100 -78.4878 North 409 471 43,000  Level Miami Center
09:32AM 29.5311 -78.4753 North 416 479 43,100  Climbing Miami Center
09:33AM 29.6881 -78.4464 North 446 513 43,000 -60 Descending Jacksonville Center
09:34AM 29.8044 -78.4336 North 404 465 43,000  Level Jacksonville Center
09:35AM 29.9189 -78.4214 North 404 465 43,100  Climbing Jacksonville Center
09:36AM 30.0353 -78.4086 North 410 472 43,000 -60 Descending Jacksonville Center
09:37AM 30.1539 -78.3961 North 416 479 43,000  Level Jacksonville Center
09:38AM 30.2514 -78.3842 North 408 470 43,100  Climbing Jacksonville Center
09:39AM 30.3681 -78.3714 North 409 471 43,100  Level Jacksonville Center
09:40AM 30.4844 -78.3589 North 409 471 43,100  Level Jacksonville Center
09:41AM 30.6050 -78.3433 North 422 486 43,100  Level Jacksonville Center
09:42AM 30.7192 -78.3306 North 417 480 43,100  Level Jacksonville Center
09:43AM 30.8356 -78.3153 North 417 480 43,100  Level Jacksonville Center
09:44AM 30.9542 -78.3025 North 422 486 43,100 -60 Level Jacksonville Center
09:45AM 31.0808 -78.2889 North 422 486 43,000 -60 Descending Jacksonville Center
09:46AM 31.1992 -78.2686 North 422 486 43,000  Level Jacksonville Center
09:47AM 31.3153 -78.2506 North 422 486 43,000  Level Jacksonville Center
09:48AM 31.4361 -78.2397 North 422 486 43,000  Level Jacksonville Center
09:49AM 31.5544 -78.2242 North 422 486 43,000  Level Jacksonville Center
09:50AM 31.6750 -78.2058 North 422 486 43,000  Level Jacksonville Center
09:51AM 31.7956 -78.1972 North 427 491 43,000  Level Jacksonville Center
09:52AM 31.9161 -78.1814 North 427 491 43,000  Level Jacksonville Center
09:53AM 32.0344 -78.1656 North 427 491 43,000  Level Jacksonville Center
09:54AM 32.1572 -78.1519 North 427 491 43,000  Level Jacksonville Center
09:55AM 32.2797 -78.1356 North 433 498 43,000  Level Jacksonville Center
09:56AM 32.4022 -78.1219 North 433 498 43,000  Level Jacksonville Center
09:57AM 32.5247 -78.1056 North 439 505 43,000  Level Jacksonville Center
09:58AM 32.6494 -78.0917 North 439 505 43,000  Level Jacksonville Center
09:59AM 32.7719 -78.0753 North 439 505 43,000  Level Jacksonville Center
10:00AM 32.8944 -78.0589 North 439 505 43,000  Level Jacksonville Center
10:01AM 33.0192 -78.0447 North 439 505 43,000  Level Jacksonville Center
10:03AM 33.2128 -78.0214 North 469 540 43,000  Level Washington Center
10:04AM 33.3361 -78.0050 North 469 540 43,000  Level Washington Center
10:05AM 33.4572 -77.9886 North 459 528 43,000  Level Washington Center
10:06AM 33.5808 -77.9747 North 444 511 43,000  Level Washington Center
10:07AM 33.7019 -77.9581 North 432 497 43,000  Level Washington Center
10:08AM 33.8211 -77.9439 North 427 491 43,000  Level Washington Center
10:09AM 33.9614 -77.9253 North 444 511 43,100  Climbing Washington Center
10:10AM 34.0869 -77.9089 North 444 511 43,100  Level Washington Center
10:11AM 34.2081 -77.8922 North 444 511 43,100 -60 Level Washington Center
10:12AM 34.3356 -77.8781 North 433 498 43,000 -60 Descending Washington Center
10:13AM 34.4567 -77.8739 North 433 498 43,000  Level Washington Center
10:14AM 34.5778 -77.8722 North 433 498 43,000  Level Washington Center
10:15AM 34.6989 -77.8706 North 428 493 43,000  Level Washington Center
10:16AM 34.7947 -77.8708 360° North 428 493 43,000  Level Washington Center
10:17AM 34.9369 -77.8647 North 428 493 43,100  Climbing Washington Center
10:18AM 35.0619 -77.8631 North 428 493 43,100  Level Washington Center
10:19AM 35.1853 -77.8614 North 434 499 43,100  Level Washington Center
10:20AM 35.3083 -77.8572 North 440 506 43,100  Level Washington Center
10:21AM 35.4314 -77.8556 North 440 506 43,100  Level Washington Center
10:22AM 35.5567 -77.8542 North 440 506 43,100  Level Washington Center
10:23AM 35.6819 -77.8550 360° North 440 506 43,100  Level Washington Center
10:24AM 35.8050 -77.8536 North 440 506 43,100  Level Washington Center
10:25AM 35.9344 -77.8494 North 440 506 43,100  Level Washington Center
10:26AM 36.0575 -77.8506 360° North 440 506 43,100  Level Washington Center
10:27AM 36.1850 -77.8489 North 440 506 43,100  Level Washington Center
10:28AM 36.3106 -77.8217 10° North 440 506 43,100  Level Washington Center
10:29AM 36.4306 -77.7683 20° North 452 520 43,100  Level Washington Center
10:30AM 36.5547 -77.7122 20° North 457 526 43,100  Level Washington Center
10:31AM 36.6808 -77.6561 20° North 470 541 43,100  Level Washington Center
10:32AM 36.8047 -77.6022 19° North 470 541 43,100  Level Washington Center
10:33AM 36.9308 -77.5458 20° North 470 541 43,100  Level Washington Center
10:34AM 37.0469 -77.4628 30° Northeast 470 541 43,100  Level Washington Center
10:35AM 37.1608 -77.3744 32° Northeast 475 547 43,100  Level Washington Center
10:36AM 37.2808 -77.3067 24° Northeast 475 547 43,100  Level Washington Center
10:37AM 37.4028 -77.2389 24° Northeast 475 547 43,100  Level Washington Center
10:38AM 37.5247 -77.1681 25° Northeast 475 547 43,100  Level Washington Center
10:39AM 37.6467 -77.0947 25° Northeast 475 547 43,100  Level Washington Center
10:40AM 37.7664 -77.0236 25° Northeast 470 541 43,100 -300 Level Washington Center
10:41AM 37.8861 -76.9494 26° Northeast 470 541 42,600 -780 Descending Washington Center
10:42AM 38.0078 -76.8778 25° Northeast 470 541 41,600 -1,020 Descending Washington Center
10:43AM 38.1275 -76.8058 25° Northeast 470 541 40,600 -780 Descending Washington Center
10:44AM 38.2492 -76.7339 25° Northeast 470 541 40,100 -720 Descending Washington Center
10:45AM 38.3581 -76.6719 24° Northeast 470 541 39,200 -1,980 Descending Washington Center
10:46AM 38.4775 -76.6100 22° Northeast 465 535 36,300 -2,820 Descending Washington Center
10:47AM 38.6094 -76.5375 23° Northeast 460 529 33,700 -3,120 Descending Washington Center
10:49AM 38.8481 -76.4044 23° Northeast 476 548 27,000 -3,180 Descending Washington Center
10:50AM 38.9653 -76.3392 23° Northeast 473 544 24,300 -1,440 Descending Washington Center
10:51AM 39.0803 -76.2761 23° Northeast 460 529 24,100 -120 Descending Washington Center
10:52AM 39.1850 -76.1914 32° Northeast 441 507 24,100 -60 Level Washington Center
10:53AM 39.2814 -76.0794 42° Northeast 452 520 24,000 -780 Descending Washington Center
10:54AM 39.3858 -75.9864 35° Northeast 452 520 22,600 -2,220 Descending Washington Center
10:56AM 39.6000 -75.7833 36° Northeast 437 503 17,200 -2,520 Descending Philadelphia TRACON
10:57AM 39.7167 -75.6833 33° Northeast 412 474 14,700 -2,100 Descending Philadelphia TRACON
10:58AM 39.7833 -75.6000 44° Northeast 399 459 13,100 -900 Descending Philadelphia TRACON
10:59AM 39.8833 -75.5333 27° Northeast 401 461 13,100  Level Philadelphia TRACON
11:00AM 39.9667 -75.4500 37° Northeast 400 460 13,100  Level Philadelphia TRACON
11:01AM 40.0667 -75.3500 37° Northeast 404 465 13,100  Level Philadelphia TRACON
11:02AM 40.1500 -75.2667 37° Northeast 390 449 13,100 -1,200 Level Philadelphia TRACON
11:04AM 40.3333 -75.1000 35° Northeast 312 359 9,100 -1,680 Descending New York TRACON
11:05AM 40.3833 -75.0167 52° Northeast 306 352 7,400 -1,500 Descending New York TRACON
11:06AM 40.4500 -74.9333 44° Northeast 295 339 6,200 -900 Descending New York TRACON
11:07AM 40.5000 -74.8667 45° Northeast 287 330 5,600 -600 Descending New York TRACON
11:08AM 40.5667 -74.8000 37° Northeast 283 326 5,000 -660 Descending New York TRACON
11:09AM 40.6333 -74.7500 30° Northeast 279 321 4,300 -480 Descending New York TRACON
11:10AM 40.7000 -74.7167 21° North 265 305 4,000 -180 Descending New York TRACON
11:11AM 40.7667 -74.6667 30° Northeast 266 306 4,000  Level New York TRACON
11:12AM 40.8333 -74.6000 37° Northeast 269 310 4,000 -60 Level New York TRACON
11:13AM 40.9000 -74.5333 37° Northeast 273 314 3,900 -300 Descending New York TRACON
11:14AM 40.9500 -74.4667 45° Northeast 270 311 3,400 -480 Descending New York TRACON
11:15AM 40.9833 -74.4000 56° Northeast 273 314 3,000 -300 Descending New York TRACON
11:16AM 41.0000 -74.3000 78° East 262 302 2,900 -420 Descending New York TRACON
11:17AM 40.9833 -74.2167 105° East 249 287 2,200 -480 Descending New York TRACON
11:18AM 40.9500 -74.1333 118° Southeast 191 220 2,000 -180 Descending New York TRACON
11:19AM 40.9333 -74.0833 114° Southeast 169 194 1,900 -540 Descending New York TRACON
11:20AM 40.9000 -74.0500 143° Southeast 162 186 1,000 -900 Descending New York TRACON